Gunnison Bend Reservoir




Date Hourly Average Reservoir Capacity (AF) Canal Flow (cfs) Battery Voltage (V) Reservoir Height (ft) Gate Height 1 (ft) Gate Height 2 (ft)
07/01/2017 2,712 87.60 13.35 9.88 0.02 1.67
07/02/2017 2,717 85.20 13.31 9.89 0.02 1.63
07/03/2017 2,734 92.50 13.30 9.92 0.02 1.80
07/04/2017 2,772 84.10 13.25 9.99 0.02 1.57
07/05/2017 2,851 72.77 13.26 10.12 0.32 0.99
07/06/2017 2,967 66.16 13.25 10.31 1.10 -0.04
07/07/2017 2,949 67.96 13.24 10.28 1.18 -0.04
07/08/2017 2,827 81.80 13.23 10.08 1.50 -0.04
07/09/2017 2,767 79.38 13.23 9.98 1.45 -0.04
07/10/2017 2,750 78.92 13.25 9.95 1.44 -0.04
07/11/2017 2,761 67.05 13.27 9.97 1.15 -0.04
07/12/2017 2,767 48.65 13.34 9.98 0.82 -0.03
07/13/2017 2,809 30.53 13.29 10.05 0.54 -0.03
07/14/2017 2,863 26.11 13.30 10.14 0.48 -0.04
07/15/2017 2,882 32.76 13.24 10.17 0.56 -0.03
07/16/2017 2,943 30.96 13.24 10.27 0.53 -0.03
07/17/2017 2,992 27.89 13.25 10.35 0.49 -0.04
07/18/2017 3,028 16.30 13.26 10.41 0.35 -0.04
07/19/2017 3,010 13.72 13.28 10.38 0.29 -0.03
07/20/2017 2,912 17.12 13.29 10.22 0.36 -0.03
07/21/2017 2,745 47.92 13.32 9.94 0.88 -0.03
07/22/2017 2,662 66.24 13.27 9.79 1.20 -0.03
07/23/2017 2,612 76.34 13.27 9.70 1.44 -0.03
07/24/2017 2,541 76.39 13.20 9.57 1.46 -0.03
07/25/2017 2,474 75.93 13.26 9.45 1.46 -0.03
07/26/2017 2,370 75.12 13.25 9.26 1.47 -0.03
07/27/2017 2,134 75.96 13.31 8.81 1.57 -0.03
07/28/2017 1,844 75.18 13.28 8.21 1.65 -0.03
07/29/2017 1,714 69.80 13.29 7.93 1.53 -0.03
07/30/2017 1,677 71.16 13.28 7.84 1.60 -0.03
07/31/2017 1,806 60.26 13.26 8.13 1.24 -0.03
Average 60.57
Maximum 92.50
Minimum 13.72
Total Volume (AF) 3,723.64